createdAt,value
2023-05-11T00:00:27.785Z,14.46
2023-05-11T00:03:36.336Z,14.48
2023-05-11T00:06:51.261Z,14.52
2023-05-11T00:09:59.572Z,14.56
2023-05-11T00:13:14.260Z,14.57
2023-05-11T00:16:16.396Z,14.56
2023-05-11T00:19:31.263Z,14.58
2023-05-11T00:22:33.156Z,14.61
2023-05-11T00:25:48.273Z,14.58
2023-05-11T00:28:56.315Z,14.59
2023-05-11T00:32:11.327Z,14.60
2023-05-11T00:35:19.890Z,14.58
2023-05-11T00:38:28.265Z,14.59
2023-05-11T00:41:43.293Z,14.58
2023-05-11T00:44:45.091Z,14.59
2023-05-11T00:48:00.382Z,14.58
2023-05-11T00:51:15.270Z,14.58
2023-05-11T00:54:17.182Z,14.59
2023-05-11T00:57:33.274Z,14.58
2023-05-11T01:00:48.336Z,14.56
2023-05-11T01:04:03.277Z,14.57
2023-05-11T01:07:30.312Z,14.54
2023-05-11T01:10:42.722Z,14.54
2023-05-11T01:13:58.307Z,14.55
2023-05-11T01:17:18.282Z,14.55
2023-05-11T01:20:25.516Z,14.58
2023-05-11T01:23:55.259Z,14.60
2023-05-11T01:27:45.285Z,14.57
2023-05-11T01:31:09.322Z,14.58
2023-05-11T01:34:27.271Z,14.56
2023-05-11T01:37:39.260Z,14.47
2023-05-11T01:41:05.259Z,14.51
2023-05-11T01:44:21.278Z,14.47
2023-05-11T01:47:31.686Z,14.41
2023-05-11T01:50:46.276Z,14.38
2023-05-11T01:53:55.260Z,14.24
2023-05-11T01:57:05.241Z,14.26
2023-05-11T02:00:23.321Z,14.31
2023-05-11T02:03:35.215Z,14.29
2023-05-11T02:06:46.285Z,14.26
2023-05-11T02:10:02.824Z,14.29
2023-05-11T02:13:12.281Z,14.29
2023-05-11T02:16:28.388Z,14.28
2023-05-11T02:19:33.984Z,14.26
2023-05-11T02:22:53.261Z,14.26
2023-05-11T02:25:56.757Z,14.22
2023-05-11T02:29:11.278Z,14.13
2023-05-11T02:32:29.333Z,14.16
2023-05-11T02:35:42.795Z,14.13
2023-05-11T02:39:05.293Z,14.10
2023-05-11T02:42:30.314Z,14.06
2023-05-11T02:45:49.273Z,14.03
2023-05-11T02:48:59.817Z,13.97
2023-05-11T02:52:10.296Z,13.91
2023-05-11T02:55:22.101Z,13.91
2023-05-11T02:58:30.374Z,13.91
2023-05-11T03:01:39.517Z,13.89
2023-05-11T03:04:48.269Z,13.88
2023-05-11T03:08:10.248Z,13.87
2023-05-11T03:11:26.279Z,13.88
2023-05-11T03:14:35.565Z,13.88
2023-05-11T03:17:52.333Z,13.89
2023-05-11T03:21:01.292Z,13.93
2023-05-11T03:24:17.308Z,13.94
2023-05-11T03:27:26.267Z,13.87
2023-05-11T03:30:35.220Z,13.90
2023-05-11T03:33:50.298Z,13.87
2023-05-11T03:36:52.930Z,13.86
2023-05-11T03:40:09.304Z,13.74
2023-05-11T03:43:24.342Z,13.78
2023-05-11T03:46:34.474Z,13.77
2023-05-11T03:49:50.298Z,13.69
2023-05-11T03:53:07.331Z,13.66
2023-05-11T03:56:09.374Z,13.62
2023-05-11T03:59:25.304Z,13.58
2023-05-11T04:02:37.276Z,13.52
2023-05-11T04:05:52.286Z,13.46
2023-05-11T04:09:07.577Z,13.48
2023-05-11T04:12:16.289Z,13.44
2023-05-11T04:15:31.311Z,13.36
2023-05-11T04:18:46.323Z,13.32
2023-05-11T04:22:01.294Z,13.31
2023-05-11T04:25:10.033Z,13.33
2023-05-11T04:28:25.314Z,13.34
2023-05-11T04:31:33.382Z,13.42
2023-05-11T04:34:41.975Z,13.41
2023-05-11T04:37:50.296Z,13.47
2023-05-11T04:41:12.314Z,13.36
2023-05-11T04:44:14.714Z,13.44
2023-05-11T04:47:29.344Z,13.46
2023-05-11T04:50:31.175Z,13.47
2023-05-11T04:53:46.288Z,13.50
2023-05-11T04:56:54.938Z,13.44
2023-05-11T05:00:03.320Z,13.45
2023-05-11T05:03:18.318Z,13.48
2023-05-11T05:06:26.276Z,13.53
2023-05-11T05:09:48.308Z,13.55
2023-05-11T05:12:56.904Z,13.57
2023-05-11T05:16:11.356Z,13.63
2023-05-11T05:19:19.822Z,13.65
2023-05-11T05:22:28.311Z,13.52
2023-05-11T05:25:36.837Z,13.54
2023-05-11T05:28:51.280Z,13.61
2023-05-11T05:31:59.289Z,13.65
2023-05-11T05:35:08.361Z,13.66
2023-05-11T05:38:16.291Z,13.75
2023-05-11T05:41:26.410Z,13.78
2023-05-11T05:44:41.300Z,13.89
2023-05-11T05:47:43.178Z,14.01
2023-05-11T05:50:58.301Z,14.06
2023-05-11T05:54:00.156Z,14.17
2023-05-11T05:57:15.899Z,14.30
2023-05-11T06:00:31.323Z,14.26
2023-05-11T06:03:46.615Z,14.34
2023-05-11T06:07:01.332Z,14.31
2023-05-11T06:10:10.291Z,14.45
2023-05-11T06:13:18.876Z,14.72
2023-05-11T06:16:27.343Z,14.93
2023-05-11T06:19:42.287Z,15.19
2023-05-11T06:22:44.310Z,15.14
2023-05-11T06:25:59.307Z,15.41
2023-05-11T06:29:07.952Z,15.42
2023-05-11T06:32:23.361Z,15.58
2023-05-11T06:35:25.433Z,15.56
2023-05-11T06:38:40.324Z,15.53
2023-05-11T06:41:51.910Z,15.95
2023-05-11T06:45:00.402Z,16.16
2023-05-11T06:48:15.298Z,16.17
2023-05-11T06:51:30.327Z,16.17
2023-05-11T06:54:39.308Z,16.33
2023-05-11T06:57:47.841Z,16.46
2023-05-11T07:00:56.377Z,16.67
2023-05-11T07:04:05.204Z,16.52
2023-05-11T07:07:20.302Z,16.55
2023-05-11T07:10:35.301Z,16.77
2023-05-11T07:13:43.325Z,17.12
2023-05-11T07:16:51.926Z,17.16
2023-05-11T07:20:06.325Z,17.02
2023-05-11T07:23:21.285Z,17.24
2023-05-11T07:26:37.307Z,17.38
2023-05-11T07:29:45.853Z,17.43
2023-05-11T07:32:54.487Z,17.43
2023-05-11T07:36:09.594Z,17.69
2023-05-11T07:39:18.318Z,17.87
2023-05-11T07:42:33.300Z,18.17
2023-05-11T07:45:41.795Z,18.48
2023-05-11T07:48:57.405Z,18.91
2023-05-11T07:52:19.216Z,19.09
2023-05-11T07:55:34.294Z,19.04
2023-05-11T07:58:42.884Z,18.86
2023-05-11T08:01:57.361Z,19.03
2023-05-11T08:05:06.366Z,19.26
2023-05-11T08:08:28.314Z,19.00
2023-05-11T08:11:43.340Z,19.08
2023-05-11T08:14:51.305Z,19.47
2023-05-11T08:18:00.359Z,19.71
2023-05-11T08:21:10.379Z,19.83
2023-05-11T08:24:25.346Z,20.36
2023-05-11T08:27:34.064Z,19.94
2023-05-11T08:30:43.620Z,20.16
2023-05-11T08:33:52.212Z,20.16
2023-05-11T08:37:00.472Z,20.16
2023-05-11T08:40:17.298Z,20.24
2023-05-11T08:43:27.077Z,20.69
2023-05-11T08:46:41.333Z,20.45
2023-05-11T08:49:51.305Z,20.41
2023-05-11T08:52:59.317Z,20.93
2023-05-11T08:56:08.671Z,21.06
2023-05-11T08:59:24.452Z,20.73
2023-05-11T09:02:26.510Z,21.19
2023-05-11T09:05:43.388Z,21.27
2023-05-11T09:08:59.446Z,21.40
2023-05-11T09:12:08.316Z,21.11
2023-05-11T09:15:23.337Z,20.99
2023-05-11T09:18:27.193Z,20.80
2023-05-11T09:21:45.523Z,20.90
2023-05-11T09:24:47.610Z,21.47
2023-05-11T09:28:06.903Z,22.09
2023-05-11T09:31:36.783Z,21.67
2023-05-11T09:34:46.797Z,20.68
2023-05-11T09:38:04.327Z,21.03
2023-05-11T09:41:12.345Z,20.87
2023-05-11T09:44:27.323Z,21.34
2023-05-11T09:47:47.658Z,21.02
2023-05-11T09:51:06.268Z,21.66
2023-05-11T09:54:28.141Z,21.86
2023-05-11T09:57:39.527Z,21.85
2023-05-11T10:01:01.248Z,21.98
2023-05-11T10:07:30.199Z,22.12
2023-05-11T10:10:52.324Z,21.39
2023-05-11T10:14:00.962Z,21.66
2023-05-11T10:17:10.331Z,21.67
2023-05-11T10:20:20.431Z,21.50
2023-05-11T10:23:29.359Z,21.46
2023-05-11T10:26:45.355Z,21.82
2023-05-11T10:29:48.906Z,21.78
2023-05-11T10:33:08.414Z,21.99
2023-05-11T10:36:19.341Z,21.99
2023-05-11T10:39:44.347Z,21.80
2023-05-11T10:43:11.464Z,22.00
2023-05-11T10:46:45.341Z,22.42
2023-05-11T10:50:13.326Z,22.57
2023-05-11T10:53:37.349Z,22.30
2023-05-11T10:56:58.072Z,21.98
2023-05-11T11:00:33.358Z,22.18
2023-05-11T11:03:41.356Z,22.02
2023-05-11T11:07:04.565Z,22.41
2023-05-11T11:10:46.470Z,22.75
2023-05-11T11:14:06.375Z,22.33
2023-05-11T11:17:24.341Z,21.87
2023-05-11T11:21:06.387Z,22.51
2023-05-11T11:24:38.002Z,22.30
2023-05-11T11:27:52.355Z,22.41
2023-05-11T11:31:32.483Z,22.32
2023-05-11T11:34:47.352Z,22.47
2023-05-11T11:38:09.377Z,22.25
2023-05-11T11:41:37.360Z,21.95
2023-05-11T11:44:53.367Z,21.97
2023-05-11T11:48:14.509Z,21.88
2023-05-11T11:51:40.617Z,21.73
2023-05-11T11:54:55.370Z,21.42
2023-05-11T11:57:57.494Z,21.88
2023-05-11T12:01:18.378Z,21.78
2023-05-11T12:04:38.090Z,21.47
2023-05-11T12:07:49.387Z,21.76
2023-05-11T12:11:12.379Z,21.57
2023-05-11T12:14:22.002Z,22.13
2023-05-11T12:17:33.379Z,22.33
2023-05-11T12:20:41.964Z,22.54
2023-05-11T12:24:10.483Z,21.91
2023-05-11T12:27:19.354Z,22.36
2023-05-11T12:30:42.347Z,23.25
2023-05-11T12:33:54.373Z,23.23
2023-05-11T12:37:06.489Z,23.17
2023-05-11T12:40:21.372Z,22.88
2023-05-11T12:43:30.109Z,22.95
2023-05-11T12:46:40.441Z,23.04
2023-05-11T12:49:49.034Z,22.35
2023-05-11T12:53:19.676Z,22.35
2023-05-11T12:56:25.756Z,22.49
2023-05-11T12:59:42.363Z,22.57
2023-05-11T13:02:48.098Z,22.56
2023-05-11T13:06:17.373Z,22.87
2023-05-11T13:09:33.164Z,22.65
2023-05-11T13:12:58.378Z,22.37
2023-05-11T13:16:06.939Z,22.81
2023-05-11T13:19:15.441Z,22.80
2023-05-11T13:22:30.399Z,22.89
2023-05-11T13:25:57.151Z,22.72
2023-05-11T13:29:12.392Z,22.70
2023-05-11T13:32:20.435Z,21.83
2023-05-11T13:35:35.490Z,21.86
2023-05-11T13:38:37.312Z,22.34
2023-05-11T13:41:54.363Z,22.36
2023-05-11T13:45:14.184Z,22.75
2023-05-11T13:48:16.459Z,21.96
2023-05-11T13:51:31.443Z,21.83
2023-05-11T13:54:33.305Z,21.82
2023-05-11T13:57:48.500Z,22.03
2023-05-11T14:01:07.924Z,22.01
2023-05-11T14:04:10.342Z,22.07
2023-05-11T14:07:35.561Z,21.89
2023-05-11T14:11:05.393Z,21.47
2023-05-11T14:14:20.421Z,21.51
2023-05-11T14:17:22.331Z,21.49
2023-05-11T14:20:38.395Z,21.61
2023-05-11T14:24:10.078Z,21.66
2023-05-11T14:27:26.438Z,21.45
2023-05-11T14:30:34.998Z,21.38
2023-05-11T14:33:49.416Z,21.40
2023-05-11T14:37:04.405Z,21.50
2023-05-11T14:40:13.180Z,21.54
2023-05-11T14:43:28.414Z,21.39
2023-05-11T14:46:43.490Z,21.37
2023-05-11T14:49:58.387Z,21.03
2023-05-11T14:53:00.695Z,21.11
2023-05-11T14:56:15.437Z,21.03
2023-05-11T14:59:30.402Z,20.91
2023-05-11T15:02:38.443Z,20.93
2023-05-11T15:05:53.408Z,21.01
2023-05-11T15:09:01.744Z,20.89
2023-05-11T15:12:16.428Z,20.92
2023-05-11T15:15:31.422Z,20.67
2023-05-11T15:18:33.415Z,20.70
2023-05-11T15:21:48.415Z,20.52
2023-05-11T15:25:03.413Z,20.56
2023-05-11T15:28:18.445Z,20.49
2023-05-11T15:31:27.049Z,20.47
2023-05-11T15:34:41.766Z,20.49
2023-05-11T15:37:59.919Z,20.48
2023-05-11T15:41:14.458Z,20.43
2023-05-11T15:44:29.414Z,20.43
2023-05-11T15:47:38.004Z,20.38
2023-05-11T15:50:53.404Z,20.28
2023-05-11T15:54:01.458Z,20.22
2023-05-11T15:57:10.029Z,20.21
2023-05-11T16:00:24.434Z,20.18
2023-05-11T16:03:26.496Z,20.19
2023-05-11T16:06:41.419Z,19.96
2023-05-11T16:09:56.426Z,19.97
2023-05-11T16:13:11.430Z,20.04
2023-05-11T16:16:20.418Z,20.02
2023-05-11T16:19:29.017Z,20.08
2023-05-11T16:22:37.428Z,20.09
2023-05-11T16:25:52.449Z,20.08
2023-05-11T16:29:01.089Z,19.96
2023-05-11T16:32:09.481Z,19.94
2023-05-11T16:35:18.186Z,19.93
2023-05-11T16:38:27.452Z,19.92
2023-05-11T16:41:35.975Z,19.87
2023-05-11T16:44:50.453Z,19.78
2023-05-11T16:47:58.485Z,19.75
2023-05-11T16:51:07.029Z,19.72
2023-05-11T16:54:21.436Z,19.73
2023-05-11T16:57:23.333Z,19.65
2023-05-11T17:00:38.413Z,19.60
2023-05-11T17:03:53.527Z,19.45
2023-05-11T17:07:02.120Z,19.26
2023-05-11T17:10:17.897Z,18.84
2023-05-11T17:13:26.991Z,18.73
2023-05-11T17:16:35.507Z,18.63
2023-05-11T17:19:44.009Z,18.66
2023-05-11T17:22:52.475Z,18.33
2023-05-11T17:26:11.289Z,18.14
2023-05-11T17:29:19.452Z,18.01
2023-05-11T17:32:34.602Z,18.00
2023-05-11T17:35:49.436Z,17.80
2023-05-11T17:39:04.450Z,17.80
2023-05-11T17:42:12.997Z,17.78
2023-05-11T17:45:27.444Z,17.81
2023-05-11T17:48:32.589Z,17.73
2023-05-11T17:51:47.447Z,17.57
2023-05-11T17:55:02.483Z,17.57
2023-05-11T17:58:17.485Z,17.54
2023-05-11T18:01:19.398Z,17.49
2023-05-11T18:04:34.474Z,17.49
2023-05-11T18:07:42.454Z,17.49
2023-05-11T18:10:57.708Z,17.49
2023-05-11T18:14:12.467Z,17.46
2023-05-11T18:17:14.406Z,17.08
2023-05-11T18:20:29.427Z,17.02
2023-05-11T18:23:44.435Z,16.91
2023-05-11T18:26:53.419Z,16.85
2023-05-11T18:30:02.663Z,16.63
2023-05-11T18:33:18.597Z,16.54
2023-05-11T18:36:27.446Z,16.38
2023-05-11T18:39:43.446Z,16.45
2023-05-11T18:42:53.348Z,16.42
2023-05-11T18:46:13.526Z,16.38
2023-05-11T18:49:16.433Z,16.30
2023-05-11T18:52:32.503Z,16.21
2023-05-11T18:55:41.282Z,15.99
2023-05-11T18:59:01.551Z,15.83
2023-05-11T19:02:05.286Z,15.70
2023-05-11T19:05:22.097Z,15.65
2023-05-11T19:08:45.487Z,15.65
2023-05-11T19:12:01.470Z,15.68
2023-05-11T19:15:04.650Z,15.46
2023-05-11T19:18:20.499Z,15.38
2023-05-11T19:21:36.521Z,15.29
2023-05-11T19:24:39.346Z,15.15
2023-05-11T19:27:55.520Z,15.00
2023-05-11T19:31:06.253Z,15.10
2023-05-11T19:34:22.779Z,15.01
2023-05-11T19:37:25.505Z,14.91
2023-05-11T19:40:46.024Z,14.80
2023-05-11T19:43:56.289Z,14.74
2023-05-11T19:47:05.460Z,14.61
2023-05-11T19:50:14.334Z,14.73
2023-05-11T19:53:29.474Z,14.69
2023-05-11T19:56:44.450Z,14.62
2023-05-11T19:59:46.309Z,14.49
2023-05-11T20:03:01.593Z,14.37
2023-05-11T20:06:10.466Z,14.38
2023-05-11T20:09:25.744Z,14.33
2023-05-11T20:12:34.485Z,14.44
2023-05-11T20:15:43.216Z,14.43
2023-05-11T20:18:51.557Z,14.53
2023-05-11T20:22:06.445Z,14.52
2023-05-11T20:25:16.976Z,14.42
2023-05-11T20:28:33.480Z,14.11
2023-05-11T20:31:48.498Z,14.46
2023-05-11T20:34:51.331Z,14.46
2023-05-11T20:38:06.469Z,14.32
2023-05-11T20:41:14.460Z,14.28
2023-05-11T20:44:23.026Z,14.28
2023-05-11T20:47:31.497Z,14.14
2023-05-11T20:50:40.020Z,14.12
2023-05-11T20:53:48.466Z,14.16
2023-05-11T20:57:03.436Z,14.15
2023-05-11T21:00:12.482Z,14.15
2023-05-11T21:03:27.515Z,14.09
2023-05-11T21:06:43.458Z,14.04
2023-05-11T21:09:58.462Z,13.96
2023-05-11T21:13:07.000Z,13.99
2023-05-11T21:16:21.493Z,14.04
2023-05-11T21:19:29.500Z,14.01
2023-05-11T21:22:38.020Z,14.01
2023-05-11T21:25:46.477Z,13.91
2023-05-11T21:29:01.472Z,14.00
2023-05-11T21:32:16.544Z,14.02
2023-05-11T21:35:31.444Z,13.93
2023-05-11T21:38:33.316Z,13.89
2023-05-11T21:41:48.498Z,13.84
2023-05-11T21:44:57.022Z,13.83
2023-05-11T21:48:05.506Z,13.90
2023-05-11T21:51:13.971Z,13.85
2023-05-11T21:54:28.454Z,13.74
2023-05-11T21:57:43.484Z,13.72
2023-05-11T22:00:51.480Z,13.80
2023-05-11T22:04:00.135Z,13.79
2023-05-11T22:07:08.458Z,13.82
2023-05-11T22:10:23.992Z,13.81
2023-05-11T22:13:38.512Z,13.79
2023-05-11T22:16:47.049Z,13.79
2023-05-11T22:20:01.476Z,13.74
2023-05-11T22:23:10.120Z,13.75
2023-05-11T22:26:18.548Z,13.66
2023-05-11T22:29:33.499Z,13.64
2023-05-11T22:32:35.369Z,13.58
2023-05-11T22:35:50.462Z,13.62
2023-05-11T22:38:59.094Z,13.57
2023-05-11T22:42:07.493Z,13.56
2023-05-11T22:45:16.020Z,13.48
2023-05-11T22:48:24.458Z,13.52
2023-05-11T22:51:39.507Z,13.52
2023-05-11T22:54:52.286Z,13.50
2023-05-11T22:58:07.478Z,13.46
2023-05-11T23:01:16.080Z,13.39
2023-05-11T23:04:30.474Z,13.37
2023-05-11T23:07:39.022Z,13.28
2023-05-11T23:10:56.484Z,13.34
2023-05-11T23:14:05.078Z,13.36
2023-05-11T23:17:19.519Z,13.32
2023-05-11T23:20:27.478Z,13.32
2023-05-11T23:23:36.054Z,13.29
2023-05-11T23:26:44.478Z,13.27
2023-05-11T23:29:54.449Z,13.28
2023-05-11T23:33:09.521Z,13.28
2023-05-11T23:36:24.515Z,13.29
2023-05-11T23:39:26.352Z,13.27
2023-05-11T23:42:41.483Z,13.21
2023-05-11T23:45:43.333Z,13.22
2023-05-11T23:48:58.525Z,13.17
2023-05-11T23:52:13.458Z,13.18
2023-05-11T23:55:28.474Z,13.15
2023-05-11T23:58:43.478Z,13.14
